sensor_id;sensor_type;location;lat;lon;timestamp;P1;durP1;ratioP1;P2;durP2;ratioP2
34234;SDS011;20500;49.856;20.290;2023-12-22T00:00:05;4.40;;;1.30;;
34234;SDS011;20500;49.856;20.290;2023-12-22T00:03:12;7.20;;;2.40;;
34234;SDS011;20500;49.856;20.290;2023-12-22T00:06:18;7.40;;;2.20;;
34234;SDS011;20500;49.856;20.290;2023-12-22T00:09:24;3.30;;;1.10;;
34234;SDS011;20500;49.856;20.290;2023-12-22T00:12:30;5.50;;;1.70;;
34234;SDS011;20500;49.856;20.290;2023-12-22T00:15:35;6.10;;;1.60;;
34234;SDS011;20500;49.856;20.290;2023-12-22T00:18:41;5.50;;;1.80;;
34234;SDS011;20500;49.856;20.290;2023-12-22T00:21:47;5.70;;;1.80;;
34234;SDS011;20500;49.856;20.290;2023-12-22T00:24:53;7.10;;;2.00;;
34234;SDS011;20500;49.856;20.290;2023-12-22T00:27:58;8.20;;;1.90;;
34234;SDS011;20500;49.856;20.290;2023-12-22T00:31:04;8.00;;;2.30;;
34234;SDS011;20500;49.856;20.290;2023-12-22T00:34:11;8.80;;;2.00;;
34234;SDS011;20500;49.856;20.290;2023-12-22T00:37:17;7.90;;;2.10;;
34234;SDS011;20500;49.856;20.290;2023-12-22T00:40:22;10.10;;;2.40;;
34234;SDS011;20500;49.856;20.290;2023-12-22T00:43:28;9.80;;;2.10;;
34234;SDS011;20500;49.856;20.290;2023-12-22T00:46:34;7.80;;;2.00;;
34234;SDS011;20500;49.856;20.290;2023-12-22T00:49:39;7.40;;;2.00;;
34234;SDS011;20500;49.856;20.290;2023-12-22T00:52:45;9.50;;;2.20;;
34234;SDS011;20500;49.856;20.290;2023-12-22T00:55:51;8.30;;;2.30;;
34234;SDS011;20500;49.856;20.290;2023-12-22T00:58:57;9.80;;;2.30;;
34234;SDS011;20500;49.856;20.290;2023-12-22T01:02:13;9.20;;;2.10;;
34234;SDS011;20500;49.856;20.290;2023-12-22T01:05:18;10.00;;;3.20;;
34234;SDS011;20500;49.856;20.290;2023-12-22T01:08:24;9.40;;;2.40;;
34234;SDS011;20500;49.856;20.290;2023-12-22T01:11:30;9.00;;;2.20;;
34234;SDS011;20500;49.856;20.290;2023-12-22T01:14:35;11.60;;;3.10;;
34234;SDS011;20500;49.856;20.290;2023-12-22T01:17:41;12.10;;;2.40;;
34234;SDS011;20500;49.856;20.290;2023-12-22T01:20:47;10.80;;;2.50;;
34234;SDS011;20500;49.856;20.290;2023-12-22T01:23:53;14.10;;;2.90;;
34234;SDS011;20500;49.856;20.290;2023-12-22T01:26:59;7.30;;;1.80;;
34234;SDS011;20500;49.856;20.290;2023-12-22T01:30:06;8.10;;;2.00;;
34234;SDS011;20500;49.856;20.290;2023-12-22T01:33:12;8.90;;;2.30;;
34234;SDS011;20500;49.856;20.290;2023-12-22T01:36:18;11.90;;;2.70;;
34234;SDS011;20500;49.856;20.290;2023-12-22T01:39:24;8.80;;;2.80;;
34234;SDS011;20500;49.856;20.290;2023-12-22T01:42:30;8.70;;;2.30;;
34234;SDS011;20500;49.856;20.290;2023-12-22T01:45:35;9.40;;;2.50;;
34234;SDS011;20500;49.856;20.290;2023-12-22T01:48:41;10.80;;;2.90;;
34234;SDS011;20500;49.856;20.290;2023-12-22T01:54:51;5.40;;;1.70;;
34234;SDS011;20500;49.856;20.290;2023-12-22T01:57:58;5.20;;;1.40;;
34234;SDS011;20500;49.856;20.290;2023-12-22T02:01:04;5.70;;;1.60;;
34234;SDS011;20500;49.856;20.290;2023-12-22T02:04:11;11.10;;;3.00;;
34234;SDS011;20500;49.856;20.290;2023-12-22T02:07:18;7.80;;;1.90;;
34234;SDS011;20500;49.856;20.290;2023-12-22T02:13:29;10.80;;;3.60;;
34234;SDS011;20500;49.856;20.290;2023-12-22T02:16:36;9.40;;;2.70;;
34234;SDS011;20500;49.856;20.290;2023-12-22T02:19:48;7.90;;;2.20;;
34234;SDS011;20500;49.856;20.290;2023-12-22T02:22:54;11.90;;;3.10;;
34234;SDS011;20500;49.856;20.290;2023-12-22T02:26:04;7.80;;;1.90;;
34234;SDS011;20500;49.856;20.290;2023-12-22T02:29:14;8.60;;;2.00;;
34234;SDS011;20500;49.856;20.290;2023-12-22T02:32:23;9.10;;;2.00;;
34234;SDS011;20500;49.856;20.290;2023-12-22T02:35:35;9.90;;;2.20;;
34234;SDS011;20500;49.856;20.290;2023-12-22T02:38:44;7.30;;;2.00;;
34234;SDS011;20500;49.856;20.290;2023-12-22T02:41:52;8.20;;;2.00;;
34234;SDS011;20500;49.856;20.290;2023-12-22T02:44:58;8.30;;;2.00;;
34234;SDS011;20500;49.856;20.290;2023-12-22T02:48:05;12.20;;;2.40;;
34234;SDS011;20500;49.856;20.290;2023-12-22T02:51:11;10.10;;;2.80;;
34234;SDS011;20500;49.856;20.290;2023-12-22T02:54:17;7.90;;;1.90;;
34234;SDS011;20500;49.856;20.290;2023-12-22T02:57:23;7.60;;;1.90;;
34234;SDS011;20500;49.856;20.290;2023-12-22T03:00:28;5.00;;;1.50;;
34234;SDS011;20500;49.856;20.290;2023-12-22T03:03:34;8.90;;;2.40;;
34234;SDS011;20500;49.856;20.290;2023-12-22T03:06:40;7.60;;;2.40;;
34234;SDS011;20500;49.856;20.290;2023-12-22T03:09:45;6.30;;;1.80;;
34234;SDS011;20500;49.856;20.290;2023-12-22T03:12:51;10.00;;;2.70;;
34234;SDS011;20500;49.856;20.290;2023-12-22T03:15:57;9.30;;;2.50;;
34234;SDS011;20500;49.856;20.290;2023-12-22T03:19:02;8.10;;;2.10;;
34234;SDS011;20500;49.856;20.290;2023-12-22T03:22:08;10.10;;;2.40;;
34234;SDS011;20500;49.856;20.290;2023-12-22T03:25:14;7.00;;;1.50;;
34234;SDS011;20500;49.856;20.290;2023-12-22T03:28:20;7.80;;;1.80;;
34234;SDS011;20500;49.856;20.290;2023-12-22T03:31:25;8.90;;;2.00;;
34234;SDS011;20500;49.856;20.290;2023-12-22T03:34:31;7.50;;;1.80;;
34234;SDS011;20500;49.856;20.290;2023-12-22T03:37:37;8.30;;;2.20;;
34234;SDS011;20500;49.856;20.290;2023-12-22T03:40:43;7.60;;;1.70;;
34234;SDS011;20500;49.856;20.290;2023-12-22T03:43:49;6.30;;;1.60;;
34234;SDS011;20500;49.856;20.290;2023-12-22T03:46:55;9.00;;;2.40;;
34234;SDS011;20500;49.856;20.290;2023-12-22T03:50:00;8.00;;;1.70;;
34234;SDS011;20500;49.856;20.290;2023-12-22T03:53:06;8.30;;;2.10;;
34234;SDS011;20500;49.856;20.290;2023-12-22T03:56:12;6.50;;;1.40;;
34234;SDS011;20500;49.856;20.290;2023-12-22T03:59:18;8.20;;;2.00;;
34234;SDS011;20500;49.856;20.290;2023-12-22T04:02:24;6.40;;;1.80;;
34234;SDS011;20500;49.856;20.290;2023-12-22T04:05:30;8.10;;;2.50;;
34234;SDS011;20500;49.856;20.290;2023-12-22T04:08:35;6.60;;;1.90;;
34234;SDS011;20500;49.856;20.290;2023-12-22T04:11:41;6.50;;;1.70;;
34234;SDS011;20500;49.856;20.290;2023-12-22T04:14:46;7.40;;;1.80;;
34234;SDS011;20500;49.856;20.290;2023-12-22T04:17:52;7.00;;;1.50;;
34234;SDS011;20500;49.856;20.290;2023-12-22T04:20:58;9.30;;;2.30;;
34234;SDS011;20500;49.856;20.290;2023-12-22T04:24:05;8.10;;;1.70;;
34234;SDS011;20500;49.856;20.290;2023-12-22T04:27:12;9.80;;;1.90;;
34234;SDS011;20500;49.856;20.290;2023-12-22T04:30:18;8.20;;;1.60;;
34234;SDS011;20500;49.856;20.290;2023-12-22T04:33:23;13.80;;;2.90;;
34234;SDS011;20500;49.856;20.290;2023-12-22T04:36:29;8.20;;;1.90;;
34234;SDS011;20500;49.856;20.290;2023-12-22T04:39:35;11.20;;;2.90;;
34234;SDS011;20500;49.856;20.290;2023-12-22T04:42:41;11.60;;;2.40;;
34234;SDS011;20500;49.856;20.290;2023-12-22T04:48:51;7.80;;;1.70;;
34234;SDS011;20500;49.856;20.290;2023-12-22T04:51:57;9.70;;;2.60;;
34234;SDS011;20500;49.856;20.290;2023-12-22T04:55:05;8.90;;;2.00;;
34234;SDS011;20500;49.856;20.290;2023-12-22T05:01:15;7.70;;;2.00;;
34234;SDS011;20500;49.856;20.290;2023-12-22T05:04:20;8.80;;;2.30;;
34234;SDS011;20500;49.856;20.290;2023-12-22T05:07:26;8.90;;;1.80;;
34234;SDS011;20500;49.856;20.290;2023-12-22T05:13:37;6.90;;;1.70;;
34234;SDS011;20500;49.856;20.290;2023-12-22T05:16:43;8.70;;;1.90;;
34234;SDS011;20500;49.856;20.290;2023-12-22T05:19:49;8.40;;;2.40;;
34234;SDS011;20500;49.856;20.290;2023-12-22T05:22:55;12.80;;;2.80;;
34234;SDS011;20500;49.856;20.290;2023-12-22T05:26:01;5.80;;;1.70;;
34234;SDS011;20500;49.856;20.290;2023-12-22T05:29:08;9.40;;;2.50;;
34234;SDS011;20500;49.856;20.290;2023-12-22T05:32:15;8.00;;;1.90;;
34234;SDS011;20500;49.856;20.290;2023-12-22T05:35:21;9.00;;;2.70;;
34234;SDS011;20500;49.856;20.290;2023-12-22T05:38:27;8.30;;;2.10;;
34234;SDS011;20500;49.856;20.290;2023-12-22T05:41:34;9.10;;;2.10;;
34234;SDS011;20500;49.856;20.290;2023-12-22T05:44:40;9.70;;;2.30;;
34234;SDS011;20500;49.856;20.290;2023-12-22T05:47:46;8.60;;;2.40;;
34234;SDS011;20500;49.856;20.290;2023-12-22T05:50:52;10.30;;;2.60;;
34234;SDS011;20500;49.856;20.290;2023-12-22T05:53:59;8.60;;;2.00;;
34234;SDS011;20500;49.856;20.290;2023-12-22T05:57:05;8.00;;;1.90;;
34234;SDS011;20500;49.856;20.290;2023-12-22T06:00:12;8.90;;;1.90;;
34234;SDS011;20500;49.856;20.290;2023-12-22T06:03:19;9.70;;;2.40;;
34234;SDS011;20500;49.856;20.290;2023-12-22T06:06:25;11.50;;;3.10;;
34234;SDS011;20500;49.856;20.290;2023-12-22T06:09:32;7.00;;;1.80;;
34234;SDS011;20500;49.856;20.290;2023-12-22T06:12:38;8.60;;;2.30;;
34234;SDS011;20500;49.856;20.290;2023-12-22T06:15:44;7.20;;;1.80;;
34234;SDS011;20500;49.856;20.290;2023-12-22T06:18:49;4.60;;;1.50;;
34234;SDS011;20500;49.856;20.290;2023-12-22T06:21:55;4.30;;;1.40;;
34234;SDS011;20500;49.856;20.290;2023-12-22T06:25:03;6.80;;;2.30;;
34234;SDS011;20500;49.856;20.290;2023-12-22T06:28:10;6.10;;;1.80;;
34234;SDS011;20500;49.856;20.290;2023-12-22T06:31:20;5.20;;;1.40;;
34234;SDS011;20500;49.856;20.290;2023-12-22T06:37:30;6.00;;;1.60;;
34234;SDS011;20500;49.856;20.290;2023-12-22T06:40:36;3.50;;;0.90;;
34234;SDS011;20500;49.856;20.290;2023-12-22T06:43:42;4.90;;;1.20;;
34234;SDS011;20500;49.856;20.290;2023-12-22T06:46:48;5.50;;;1.00;;
34234;SDS011;20500;49.856;20.290;2023-12-22T06:49:54;5.70;;;1.60;;
34234;SDS011;20500;49.856;20.290;2023-12-22T06:53:00;7.20;;;2.30;;
34234;SDS011;20500;49.856;20.290;2023-12-22T06:56:20;8.50;;;2.60;;
34234;SDS011;20500;49.856;20.290;2023-12-22T06:59:27;9.10;;;2.20;;
34234;SDS011;20500;49.856;20.290;2023-12-22T07:02:35;10.40;;;2.20;;
34234;SDS011;20500;49.856;20.290;2023-12-22T07:08:45;9.90;;;2.40;;
34234;SDS011;20500;49.856;20.290;2023-12-22T07:12:05;13.50;;;2.50;;
34234;SDS011;20500;49.856;20.290;2023-12-22T07:15:12;10.20;;;2.70;;
34234;SDS011;20500;49.856;20.290;2023-12-22T07:18:18;9.00;;;2.60;;
34234;SDS011;20500;49.856;20.290;2023-12-22T07:21:24;13.30;;;2.60;;
34234;SDS011;20500;49.856;20.290;2023-12-22T07:24:30;13.70;;;3.10;;
34234;SDS011;20500;49.856;20.290;2023-12-22T07:27:35;9.50;;;2.70;;
34234;SDS011;20500;49.856;20.290;2023-12-22T07:30:41;10.70;;;2.20;;
34234;SDS011;20500;49.856;20.290;2023-12-22T07:33:47;10.10;;;2.40;;
34234;SDS011;20500;49.856;20.290;2023-12-22T07:36:52;10.00;;;2.70;;
34234;SDS011;20500;49.856;20.290;2023-12-22T07:40:09;11.10;;;3.60;;
34234;SDS011;20500;49.856;20.290;2023-12-22T07:43:16;12.80;;;4.10;;
34234;SDS011;20500;49.856;20.290;2023-12-22T07:46:22;10.00;;;2.60;;
34234;SDS011;20500;49.856;20.290;2023-12-22T07:49:28;10.70;;;2.80;;
34234;SDS011;20500;49.856;20.290;2023-12-22T07:52:35;13.10;;;3.20;;
34234;SDS011;20500;49.856;20.290;2023-12-22T07:55:43;12.60;;;3.90;;
34234;SDS011;20500;49.856;20.290;2023-12-22T07:58:49;12.80;;;3.10;;
34234;SDS011;20500;49.856;20.290;2023-12-22T08:02:04;14.00;;;3.70;;
34234;SDS011;20500;49.856;20.290;2023-12-22T08:08:13;13.10;;;3.60;;
34234;SDS011;20500;49.856;20.290;2023-12-22T08:11:19;14.20;;;3.30;;
34234;SDS011;20500;49.856;20.290;2023-12-22T08:14:26;17.00;;;4.50;;
34234;SDS011;20500;49.856;20.290;2023-12-22T08:17:32;11.40;;;3.50;;
34234;SDS011;20500;49.856;20.290;2023-12-22T08:20:38;12.60;;;3.60;;
34234;SDS011;20500;49.856;20.290;2023-12-22T08:23:47;9.40;;;2.60;;
34234;SDS011;20500;49.856;20.290;2023-12-22T08:26:58;13.90;;;4.20;;
34234;SDS011;20500;49.856;20.290;2023-12-22T08:30:04;14.40;;;3.50;;
34234;SDS011;20500;49.856;20.290;2023-12-22T08:33:10;14.40;;;4.60;;
34234;SDS011;20500;49.856;20.290;2023-12-22T08:36:16;13.80;;;4.10;;
34234;SDS011;20500;49.856;20.290;2023-12-22T08:39:22;12.10;;;3.60;;
34234;SDS011;20500;49.856;20.290;2023-12-22T08:42:29;8.70;;;2.60;;
34234;SDS011;20500;49.856;20.290;2023-12-22T08:45:35;9.20;;;2.10;;
34234;SDS011;20500;49.856;20.290;2023-12-22T08:48:40;8.90;;;2.60;;
34234;SDS011;20500;49.856;20.290;2023-12-22T08:51:46;12.30;;;2.30;;
34234;SDS011;20500;49.856;20.290;2023-12-22T08:54:51;8.70;;;2.50;;
34234;SDS011;20500;49.856;20.290;2023-12-22T08:57:57;10.70;;;2.80;;
34234;SDS011;20500;49.856;20.290;2023-12-22T09:01:05;10.80;;;2.60;;
34234;SDS011;20500;49.856;20.290;2023-12-22T09:04:11;8.60;;;2.50;;
34234;SDS011;20500;49.856;20.290;2023-12-22T09:07:17;13.10;;;3.10;;
34234;SDS011;20500;49.856;20.290;2023-12-22T09:10:25;16.90;;;7.10;;
34234;SDS011;20500;49.856;20.290;2023-12-22T09:13:31;13.10;;;3.80;;
34234;SDS011;20500;49.856;20.290;2023-12-22T09:16:38;9.20;;;2.50;;
34234;SDS011;20500;49.856;20.290;2023-12-22T09:19:45;8.80;;;2.60;;
34234;SDS011;20500;49.856;20.290;2023-12-22T09:22:51;9.40;;;2.60;;
34234;SDS011;20500;49.856;20.290;2023-12-22T09:25:56;11.00;;;3.60;;
34234;SDS011;20500;49.856;20.290;2023-12-22T09:29:02;7.10;;;2.00;;
34234;SDS011;20500;49.856;20.290;2023-12-22T09:32:08;10.90;;;2.20;;
34234;SDS011;20500;49.856;20.290;2023-12-22T09:35:13;8.70;;;2.90;;
34234;SDS011;20500;49.856;20.290;2023-12-22T09:38:20;9.50;;;2.50;;
34234;SDS011;20500;49.856;20.290;2023-12-22T09:41:26;15.00;;;4.80;;
34234;SDS011;20500;49.856;20.290;2023-12-22T09:44:32;12.10;;;4.80;;
34234;SDS011;20500;49.856;20.290;2023-12-22T09:47:40;10.10;;;2.90;;
34234;SDS011;20500;49.856;20.290;2023-12-22T09:50:47;6.90;;;1.80;;
34234;SDS011;20500;49.856;20.290;2023-12-22T09:53:53;8.40;;;1.60;;
34234;SDS011;20500;49.856;20.290;2023-12-22T09:57:04;9.20;;;2.40;;
34234;SDS011;20500;49.856;20.290;2023-12-22T10:00:24;8.70;;;2.00;;
34234;SDS011;20500;49.856;20.290;2023-12-22T10:03:33;11.00;;;3.90;;
34234;SDS011;20500;49.856;20.290;2023-12-22T10:06:40;9.70;;;2.10;;
34234;SDS011;20500;49.856;20.290;2023-12-22T10:09:48;9.00;;;2.20;;
34234;SDS011;20500;49.856;20.290;2023-12-22T10:12:55;8.80;;;2.70;;
34234;SDS011;20500;49.856;20.290;2023-12-22T10:16:02;13.10;;;4.70;;
34234;SDS011;20500;49.856;20.290;2023-12-22T10:19:10;10.00;;;3.30;;
34234;SDS011;20500;49.856;20.290;2023-12-22T10:22:17;6.60;;;2.00;;
34234;SDS011;20500;49.856;20.290;2023-12-22T10:25:28;10.20;;;2.50;;
34234;SDS011;20500;49.856;20.290;2023-12-22T10:28:35;5.70;;;1.70;;
34234;SDS011;20500;49.856;20.290;2023-12-22T10:31:41;9.30;;;3.50;;
34234;SDS011;20500;49.856;20.290;2023-12-22T10:34:46;8.40;;;3.00;;
34234;SDS011;20500;49.856;20.290;2023-12-22T10:37:53;11.50;;;3.20;;
34234;SDS011;20500;49.856;20.290;2023-12-22T10:41:03;11.70;;;3.40;;
34234;SDS011;20500;49.856;20.290;2023-12-22T10:44:11;10.10;;;3.50;;
34234;SDS011;20500;49.856;20.290;2023-12-22T10:47:16;10.20;;;3.40;;
34234;SDS011;20500;49.856;20.290;2023-12-22T10:50:24;12.40;;;4.80;;
34234;SDS011;20500;49.856;20.290;2023-12-22T10:53:30;9.70;;;2.80;;
34234;SDS011;20500;49.856;20.290;2023-12-22T10:56:35;9.60;;;2.30;;
34234;SDS011;20500;49.856;20.290;2023-12-22T10:59:45;10.00;;;3.10;;
34234;SDS011;20500;49.856;20.290;2023-12-22T11:02:55;10.70;;;3.60;;
34234;SDS011;20500;49.856;20.290;2023-12-22T11:06:06;10.10;;;3.00;;
34234;SDS011;20500;49.856;20.290;2023-12-22T11:09:19;14.30;;;5.50;;
34234;SDS011;20500;49.856;20.290;2023-12-22T11:12:27;9.50;;;2.80;;
34234;SDS011;20500;49.856;20.290;2023-12-22T11:15:35;10.60;;;2.50;;
34234;SDS011;20500;49.856;20.290;2023-12-22T11:18:41;15.00;;;4.70;;
34234;SDS011;20500;49.856;20.290;2023-12-22T11:21:48;11.00;;;3.80;;
34234;SDS011;20500;49.856;20.290;2023-12-22T11:24:55;12.20;;;3.70;;
34234;SDS011;20500;49.856;20.290;2023-12-22T11:28:02;15.00;;;5.70;;
34234;SDS011;20500;49.856;20.290;2023-12-22T11:31:09;10.70;;;2.70;;
34234;SDS011;20500;49.856;20.290;2023-12-22T11:34:15;9.50;;;2.90;;
34234;SDS011;20500;49.856;20.290;2023-12-22T11:37:24;11.60;;;4.70;;
34234;SDS011;20500;49.856;20.290;2023-12-22T11:40:30;11.80;;;3.60;;
34234;SDS011;20500;49.856;20.290;2023-12-22T11:43:36;10.40;;;2.70;;
34234;SDS011;20500;49.856;20.290;2023-12-22T11:46:43;9.40;;;2.00;;
34234;SDS011;20500;49.856;20.290;2023-12-22T11:52:54;13.10;;;4.90;;
34234;SDS011;20500;49.856;20.290;2023-12-22T11:56:00;11.60;;;3.80;;
34234;SDS011;20500;49.856;20.290;2023-12-22T11:59:08;6.60;;;2.00;;
34234;SDS011;20500;49.856;20.290;2023-12-22T12:02:14;9.00;;;2.40;;
34234;SDS011;20500;49.856;20.290;2023-12-22T12:05:20;8.60;;;2.50;;
34234;SDS011;20500;49.856;20.290;2023-12-22T12:08:30;10.30;;;3.60;;
34234;SDS011;20500;49.856;20.290;2023-12-22T12:15:17;14.10;;;4.90;;
34234;SDS011;20500;49.856;20.290;2023-12-22T12:18:27;10.30;;;3.00;;
34234;SDS011;20500;49.856;20.290;2023-12-22T12:21:34;10.20;;;3.50;;
34234;SDS011;20500;49.856;20.290;2023-12-22T12:24:40;7.70;;;2.30;;
34234;SDS011;20500;49.856;20.290;2023-12-22T12:27:45;5.40;;;1.90;;
34234;SDS011;20500;49.856;20.290;2023-12-22T12:30:54;5.80;;;2.20;;
34234;SDS011;20500;49.856;20.290;2023-12-22T12:34:03;9.70;;;3.50;;
34234;SDS011;20500;49.856;20.290;2023-12-22T12:40:13;6.90;;;2.20;;
34234;SDS011;20500;49.856;20.290;2023-12-22T12:43:24;7.80;;;2.40;;
34234;SDS011;20500;49.856;20.290;2023-12-22T12:46:33;8.30;;;2.60;;
34234;SDS011;20500;49.856;20.290;2023-12-22T12:49:39;11.90;;;5.00;;
34234;SDS011;20500;49.856;20.290;2023-12-22T12:52:45;9.80;;;3.00;;
34234;SDS011;20500;49.856;20.290;2023-12-22T12:55:54;8.50;;;2.70;;
34234;SDS011;20500;49.856;20.290;2023-12-22T12:59:00;7.00;;;2.30;;
34234;SDS011;20500;49.856;20.290;2023-12-22T13:02:10;10.70;;;3.00;;
34234;SDS011;20500;49.856;20.290;2023-12-22T13:05:21;7.30;;;2.20;;
34234;SDS011;20500;49.856;20.290;2023-12-22T13:08:27;8.70;;;2.80;;
34234;SDS011;20500;49.856;20.290;2023-12-22T13:11:45;12.50;;;4.30;;
34234;SDS011;20500;49.856;20.290;2023-12-22T13:17:54;10.30;;;3.30;;
34234;SDS011;20500;49.856;20.290;2023-12-22T13:21:01;11.40;;;3.40;;
34234;SDS011;20500;49.856;20.290;2023-12-22T13:27:15;9.50;;;2.60;;
34234;SDS011;20500;49.856;20.290;2023-12-22T13:30:32;12.20;;;4.30;;
34234;SDS011;20500;49.856;20.290;2023-12-22T13:33:39;12.00;;;4.00;;
34234;SDS011;20500;49.856;20.290;2023-12-22T13:36:44;9.40;;;2.90;;
34234;SDS011;20500;49.856;20.290;2023-12-22T13:39:50;7.20;;;2.20;;
34234;SDS011;20500;49.856;20.290;2023-12-22T13:42:56;8.20;;;2.70;;
34234;SDS011;20500;49.856;20.290;2023-12-22T13:46:04;11.50;;;3.80;;
34234;SDS011;20500;49.856;20.290;2023-12-22T13:49:10;13.20;;;4.50;;
34234;SDS011;20500;49.856;20.290;2023-12-22T13:52:26;9.70;;;2.50;;
34234;SDS011;20500;49.856;20.290;2023-12-22T13:55:35;12.80;;;4.40;;
34234;SDS011;20500;49.856;20.290;2023-12-22T13:58:45;9.90;;;2.90;;
34234;SDS011;20500;49.856;20.290;2023-12-22T14:01:51;7.00;;;2.10;;
34234;SDS011;20500;49.856;20.290;2023-12-22T14:04:57;9.50;;;2.30;;
34234;SDS011;20500;49.856;20.290;2023-12-22T14:08:02;11.10;;;3.30;;
34234;SDS011;20500;49.856;20.290;2023-12-22T14:11:09;8.90;;;2.70;;
34234;SDS011;20500;49.856;20.290;2023-12-22T14:14:15;12.70;;;4.50;;
34234;SDS011;20500;49.856;20.290;2023-12-22T14:17:21;8.90;;;2.40;;
34234;SDS011;20500;49.856;20.290;2023-12-22T14:20:27;10.70;;;3.20;;
34234;SDS011;20500;49.856;20.290;2023-12-22T14:23:32;9.10;;;2.40;;
34234;SDS011;20500;49.856;20.290;2023-12-22T14:29:58;8.50;;;2.40;;
34234;SDS011;20500;49.856;20.290;2023-12-22T14:33:04;11.20;;;3.10;;
34234;SDS011;20500;49.856;20.290;2023-12-22T14:36:10;8.30;;;2.80;;
34234;SDS011;20500;49.856;20.290;2023-12-22T14:39:15;7.30;;;2.60;;
34234;SDS011;20500;49.856;20.290;2023-12-22T14:42:21;11.50;;;3.30;;
34234;SDS011;20500;49.856;20.290;2023-12-22T14:45:26;9.70;;;2.90;;
34234;SDS011;20500;49.856;20.290;2023-12-22T14:48:32;6.90;;;2.10;;
34234;SDS011;20500;49.856;20.290;2023-12-22T14:51:37;11.40;;;4.10;;
34234;SDS011;20500;49.856;20.290;2023-12-22T14:54:43;18.40;;;9.60;;
34234;SDS011;20500;49.856;20.290;2023-12-22T14:57:49;49.00;;;27.90;;
34234;SDS011;20500;49.856;20.290;2023-12-22T15:00:55;34.40;;;15.10;;
34234;SDS011;20500;49.856;20.290;2023-12-22T15:04:00;36.30;;;17.40;;
34234;SDS011;20500;49.856;20.290;2023-12-22T15:07:06;63.10;;;33.80;;
34234;SDS011;20500;49.856;20.290;2023-12-22T15:10:12;26.90;;;13.30;;
34234;SDS011;20500;49.856;20.290;2023-12-22T15:13:17;53.80;;;37.70;;
34234;SDS011;20500;49.856;20.290;2023-12-22T15:16:23;28.90;;;16.40;;
34234;SDS011;20500;49.856;20.290;2023-12-22T15:19:29;19.60;;;9.80;;
34234;SDS011;20500;49.856;20.290;2023-12-22T15:22:34;44.40;;;24.70;;
34234;SDS011;20500;49.856;20.290;2023-12-22T15:25:40;192.70;;;81.40;;
34234;SDS011;20500;49.856;20.290;2023-12-22T15:28:45;429.70;;;185.70;;
34234;SDS011;20500;49.856;20.290;2023-12-22T15:31:51;311.80;;;134.20;;
34234;SDS011;20500;49.856;20.290;2023-12-22T15:35:03;84.40;;;43.80;;
34234;SDS011;20500;49.856;20.290;2023-12-22T15:38:11;102.30;;;62.20;;
34234;SDS011;20500;49.856;20.290;2023-12-22T15:41:17;84.20;;;42.80;;
34234;SDS011;20500;49.856;20.290;2023-12-22T15:44:23;96.10;;;48.60;;
34234;SDS011;20500;49.856;20.290;2023-12-22T15:47:31;146.20;;;67.00;;
34234;SDS011;20500;49.856;20.290;2023-12-22T15:50:37;50.90;;;26.80;;
34234;SDS011;20500;49.856;20.290;2023-12-22T15:53:42;41.80;;;21.50;;
34234;SDS011;20500;49.856;20.290;2023-12-22T15:56:48;139.70;;;92.80;;
34234;SDS011;20500;49.856;20.290;2023-12-22T15:59:53;50.50;;;34.10;;
34234;SDS011;20500;49.856;20.290;2023-12-22T16:02:59;38.40;;;28.10;;
34234;SDS011;20500;49.856;20.290;2023-12-22T16:06:06;24.30;;;15.30;;
34234;SDS011;20500;49.856;20.290;2023-12-22T16:09:13;63.10;;;30.50;;
34234;SDS011;20500;49.856;20.290;2023-12-22T16:12:18;131.90;;;56.90;;
34234;SDS011;20500;49.856;20.290;2023-12-22T16:15:23;109.30;;;47.90;;
34234;SDS011;20500;49.856;20.290;2023-12-22T16:18:29;53.60;;;24.40;;
34234;SDS011;20500;49.856;20.290;2023-12-22T16:21:39;139.30;;;68.20;;
34234;SDS011;20500;49.856;20.290;2023-12-22T16:24:47;58.00;;;28.10;;
34234;SDS011;20500;49.856;20.290;2023-12-22T16:27:52;40.90;;;20.20;;
34234;SDS011;20500;49.856;20.290;2023-12-22T16:30:57;50.80;;;26.90;;
34234;SDS011;20500;49.856;20.290;2023-12-22T16:34:04;119.60;;;64.60;;
34234;SDS011;20500;49.856;20.290;2023-12-22T16:37:09;53.30;;;31.20;;
34234;SDS011;20500;49.856;20.290;2023-12-22T16:40:16;27.80;;;14.90;;
34234;SDS011;20500;49.856;20.290;2023-12-22T16:43:22;39.60;;;22.40;;
34234;SDS011;20500;49.856;20.290;2023-12-22T16:46:27;35.80;;;21.00;;
34234;SDS011;20500;49.856;20.290;2023-12-22T16:49:33;71.90;;;46.00;;
34234;SDS011;20500;49.856;20.290;2023-12-22T16:52:40;84.10;;;54.50;;
34234;SDS011;20500;49.856;20.290;2023-12-22T16:55:46;18.40;;;8.30;;
34234;SDS011;20500;49.856;20.290;2023-12-22T16:58:51;57.50;;;34.40;;
34234;SDS011;20500;49.856;20.290;2023-12-22T17:01:57;77.10;;;45.50;;
34234;SDS011;20500;49.856;20.290;2023-12-22T17:05:22;50.20;;;30.70;;
34234;SDS011;20500;49.856;20.290;2023-12-22T17:11:32;21.10;;;10.20;;
34234;SDS011;20500;49.856;20.290;2023-12-22T17:14:38;22.60;;;13.40;;
34234;SDS011;20500;49.856;20.290;2023-12-22T17:17:43;28.10;;;17.70;;
34234;SDS011;20500;49.856;20.290;2023-12-22T17:20:49;31.10;;;18.40;;
34234;SDS011;20500;49.856;20.290;2023-12-22T17:24:07;55.00;;;33.00;;
34234;SDS011;20500;49.856;20.290;2023-12-22T17:30:17;41.30;;;20.70;;
34234;SDS011;20500;49.856;20.290;2023-12-22T17:33:24;48.50;;;27.90;;
34234;SDS011;20500;49.856;20.290;2023-12-22T17:36:30;43.90;;;24.10;;
34234;SDS011;20500;49.856;20.290;2023-12-22T17:39:36;30.50;;;16.60;;
34234;SDS011;20500;49.856;20.290;2023-12-22T17:42:41;29.10;;;17.90;;
34234;SDS011;20500;49.856;20.290;2023-12-22T17:45:47;38.20;;;23.80;;
34234;SDS011;20500;49.856;20.290;2023-12-22T17:48:52;21.40;;;11.20;;
34234;SDS011;20500;49.856;20.290;2023-12-22T17:51:58;15.10;;;6.40;;
34234;SDS011;20500;49.856;20.290;2023-12-22T17:55:04;38.80;;;21.90;;
34234;SDS011;20500;49.856;20.290;2023-12-22T17:58:11;27.80;;;14.60;;
34234;SDS011;20500;49.856;20.290;2023-12-22T18:01:16;21.10;;;11.10;;
34234;SDS011;20500;49.856;20.290;2023-12-22T18:04:22;14.20;;;5.80;;
34234;SDS011;20500;49.856;20.290;2023-12-22T18:07:28;12.90;;;4.20;;
34234;SDS011;20500;49.856;20.290;2023-12-22T18:10:33;11.60;;;4.10;;
34234;SDS011;20500;49.856;20.290;2023-12-22T18:13:39;12.00;;;3.80;;
34234;SDS011;20500;49.856;20.290;2023-12-22T18:16:44;8.60;;;3.40;;
34234;SDS011;20500;49.856;20.290;2023-12-22T18:19:50;9.70;;;2.80;;
34234;SDS011;20500;49.856;20.290;2023-12-22T18:22:55;13.30;;;5.60;;
34234;SDS011;20500;49.856;20.290;2023-12-22T18:26:01;13.30;;;5.40;;
34234;SDS011;20500;49.856;20.290;2023-12-22T18:29:07;10.60;;;3.00;;
34234;SDS011;20500;49.856;20.290;2023-12-22T18:32:13;12.40;;;3.10;;
34234;SDS011;20500;49.856;20.290;2023-12-22T18:35:18;8.30;;;2.60;;
34234;SDS011;20500;49.856;20.290;2023-12-22T18:38:24;7.30;;;2.30;;
34234;SDS011;20500;49.856;20.290;2023-12-22T18:41:29;11.70;;;3.20;;
34234;SDS011;20500;49.856;20.290;2023-12-22T18:44:35;9.50;;;2.80;;
34234;SDS011;20500;49.856;20.290;2023-12-22T18:47:40;10.70;;;2.60;;
34234;SDS011;20500;49.856;20.290;2023-12-22T18:50:46;11.00;;;3.20;;
34234;SDS011;20500;49.856;20.290;2023-12-22T18:53:55;95.00;;;66.50;;
34234;SDS011;20500;49.856;20.290;2023-12-22T18:57:00;115.00;;;75.80;;
34234;SDS011;20500;49.856;20.290;2023-12-22T19:00:08;84.30;;;54.70;;
34234;SDS011;20500;49.856;20.290;2023-12-22T19:03:16;33.20;;;23.20;;
34234;SDS011;20500;49.856;20.290;2023-12-22T19:06:22;32.20;;;25.10;;